createdAt,value
2022-07-29T18:09:47.506Z,38.12
2022-07-29T18:12:14.087Z,38.69
2022-07-29T18:14:40.694Z,38.97
2022-07-29T18:17:07.275Z,39.44
2022-07-29T18:19:33.837Z,39.41
2022-07-29T18:22:04.838Z,39.68
2022-07-29T18:24:32.212Z,39.96
2022-07-29T18:26:59.064Z,40.20
2022-07-29T18:29:28.879Z,39.95
2022-07-29T18:31:55.820Z,40.20
2022-07-29T18:34:22.388Z,40.20
2022-07-29T18:36:48.960Z,40.02
2022-07-29T18:39:21.276Z,40.24
2022-07-29T18:41:50.592Z,40.30
2022-07-29T18:44:18.410Z,40.32
2022-07-29T18:46:47.257Z,40.30
2022-07-29T18:49:14.736Z,39.97
2022-07-29T18:51:41.470Z,40.37
2022-07-29T18:54:09.236Z,40.44
2022-07-29T18:56:36.000Z,40.14
2022-07-29T18:59:03.060Z,40.40
2022-07-29T19:01:31.608Z,40.12
2022-07-29T19:03:58.783Z,40.55
2022-07-29T19:06:25.854Z,40.20
2022-07-29T19:08:52.835Z,40.60
2022-07-29T19:11:19.544Z,40.22
2022-07-29T19:13:46.113Z,40.27
2022-07-29T19:16:14.032Z,40.74
2022-07-29T19:18:41.331Z,40.44
2022-07-29T19:21:07.914Z,40.74
2022-07-29T19:24:05.848Z,40.62
2022-07-29T19:26:21.146Z,40.75
2022-07-29T19:28:48.795Z,40.71
2022-07-29T19:31:15.859Z,40.58
2022-07-29T19:33:42.753Z,40.94
2022-07-29T19:36:09.400Z,41.25
2022-07-29T19:38:38.150Z,40.82
2022-07-29T19:41:06.224Z,41.13
2022-07-29T19:43:50.863Z,41.21
2022-07-29T19:46:20.403Z,41.32
2022-07-29T19:48:47.095Z,40.89
2022-07-29T19:51:13.936Z,41.18
2022-07-29T19:53:40.498Z,41.30
2022-07-29T19:56:08.757Z,41.36
2022-07-29T19:58:35.830Z,41.14
2022-07-29T20:01:02.986Z,41.58
2022-07-29T20:03:39.725Z,41.31
2022-07-29T20:06:07.479Z,41.70
2022-07-29T20:08:34.396Z,41.97
2022-07-29T20:11:00.981Z,41.53
2022-07-29T20:13:27.627Z,41.82
2022-07-29T20:15:54.261Z,41.73
2022-07-29T20:18:20.887Z,41.79
2022-07-29T20:20:49.188Z,41.55
2022-07-29T20:23:16.498Z,41.61
2022-07-29T20:25:43.076Z,41.71
2022-07-29T20:28:09.808Z,41.52
2022-07-29T20:30:38.571Z,41.72
2022-07-29T20:33:05.843Z,41.89
2022-07-29T20:35:32.512Z,42.15
2022-07-29T20:38:00.368Z,41.87
2022-07-29T20:40:27.260Z,41.75
2022-07-29T20:42:54.314Z,41.76
2022-07-29T20:45:21.420Z,41.82
2022-07-29T20:47:48.029Z,42.16
2022-07-29T20:50:15.020Z,42.09
2022-07-29T20:52:43.333Z,42.28
2022-07-29T20:55:10.675Z,42.18
2022-07-29T20:57:38.904Z,42.33
2022-07-29T21:00:07.467Z,42.34
2022-07-29T21:02:34.294Z,42.11
2022-07-29T21:05:01.157Z,42.22
2022-07-29T21:07:27.937Z,42.10
2022-07-29T21:09:54.531Z,42.35
2022-07-29T21:12:21.128Z,42.26
2022-07-29T21:14:48.106Z,42.20
2022-07-29T21:17:16.025Z,42.12
2022-07-29T21:19:42.805Z,42.41
2022-07-29T21:22:09.647Z,42.28
2022-07-29T21:24:36.209Z,42.26
2022-07-29T21:27:21.993Z,42.16
2022-07-29T21:29:49.206Z,42.26
2022-07-29T21:32:29.678Z,42.72
2022-07-29T21:34:56.879Z,42.55
2022-07-29T21:37:23.452Z,42.21
2022-07-29T21:39:50.023Z,42.61
2022-07-29T21:42:16.681Z,42.59
2022-07-29T21:44:43.310Z,42.52
2022-07-29T21:47:10.639Z,42.37
2022-07-29T21:49:37.530Z,42.30
2022-07-29T21:52:04.730Z,42.54
2022-07-29T21:54:31.409Z,42.46
2022-07-29T21:56:58.072Z,42.28
2022-07-29T21:59:24.901Z,42.42
2022-07-29T22:01:51.594Z,42.62
2022-07-29T22:04:18.278Z,42.78
2022-07-29T22:06:44.932Z,42.88
2022-07-29T22:09:11.507Z,42.86
2022-07-29T22:11:38.066Z,42.75
2022-07-29T22:14:05.230Z,42.78
2022-07-29T22:16:31.872Z,42.56
2022-07-29T22:18:58.660Z,42.80
2022-07-29T22:21:25.289Z,42.80
2022-07-29T22:23:51.859Z,42.55
2022-07-29T22:26:19.004Z,42.36
2022-07-29T22:28:45.568Z,42.55
2022-07-29T22:31:12.389Z,42.57
2022-07-29T22:33:39.081Z,42.65
2022-07-29T22:36:05.844Z,42.40
2022-07-29T22:38:32.425Z,42.46
2022-07-29T22:41:01.349Z,42.43
2022-07-29T22:43:28.184Z,42.41
2022-07-29T22:45:54.887Z,42.88
2022-07-29T22:48:21.495Z,42.57
2022-07-29T22:50:48.089Z,42.86
2022-07-29T22:53:14.737Z,42.42
2022-07-29T22:55:41.350Z,42.52
2022-07-29T22:58:07.960Z,42.43
2022-07-29T23:00:34.598Z,42.24
2022-07-29T23:03:01.217Z,42.72
2022-07-29T23:05:27.957Z,42.49
2022-07-29T23:07:54.536Z,42.50
2022-07-29T23:10:22.810Z,42.68
2022-07-29T23:12:49.457Z,42.39
2022-07-29T23:15:16.007Z,42.74
2022-07-29T23:17:44.754Z,42.69
2022-07-29T23:20:11.529Z,42.40
2022-07-29T23:22:41.584Z,42.77
2022-07-29T23:25:08.448Z,42.65
2022-07-29T23:27:35.247Z,42.43
2022-07-29T23:30:02.519Z,42.53
2022-07-29T23:32:29.166Z,42.52
2022-07-29T23:34:55.762Z,42.78
2022-07-29T23:37:22.383Z,42.64
2022-07-29T23:39:48.946Z,42.36
2022-07-29T23:42:15.519Z,42.52
2022-07-29T23:44:42.088Z,42.14
2022-07-29T23:47:08.667Z,42.22
2022-07-29T23:49:35.302Z,42.46
2022-07-29T23:52:01.902Z,42.10
2022-07-29T23:54:28.497Z,42.31
2022-07-29T23:56:57.724Z,42.26
2022-07-29T23:59:24.746Z,41.92
